sensor_id;sensor_type;location;lat;lon;timestamp;pressure;altitude;pressure_sealevel;temperature;humidity
50859;BME280;36826;47.514;19.056;2023-01-28T00:00:48;100177.72;;;8.37;61.14
50859;BME280;36826;47.514;19.056;2023-01-28T00:03:14;100169.78;;;7.78;61.30
50859;BME280;36826;47.514;19.056;2023-01-28T00:05:40;100169.69;;;8.03;60.64
50859;BME280;36826;47.514;19.056;2023-01-28T00:08:05;100167.09;;;7.78;61.63
50859;BME280;36826;47.514;19.056;2023-01-28T00:10:30;100179.13;;;7.95;61.25
50859;BME280;36826;47.514;19.056;2023-01-28T00:12:56;100182.53;;;7.86;61.85
50859;BME280;36826;47.514;19.056;2023-01-28T00:15:21;100176.97;;;8.01;61.11
50859;BME280;36826;47.514;19.056;2023-01-28T00:17:49;100168.81;;;7.79;61.21
50859;BME280;36826;47.514;19.056;2023-01-28T00:20:14;100174.75;;;7.83;61.63
50859;BME280;36826;47.514;19.056;2023-01-28T00:22:40;100174.66;;;7.85;61.11
50859;BME280;36826;47.514;19.056;2023-01-28T00:25:05;100180.84;;;7.96;61.00
50859;BME280;36826;47.514;19.056;2023-01-28T00:27:31;100175.53;;;8.19;60.71
50859;BME280;36826;47.514;19.056;2023-01-28T00:29:56;100184.94;;;7.78;60.71
50859;BME280;36826;47.514;19.056;2023-01-28T00:32:21;100182.69;;;8.19;60.69
50859;BME280;36826;47.514;19.056;2023-01-28T00:34:47;100185.50;;;8.17;60.18
50859;BME280;36826;47.514;19.056;2023-01-28T00:37:14;100179.66;;;8.23;60.02
50859;BME280;36826;47.514;19.056;2023-01-28T00:39:39;100180.63;;;8.45;59.84
50859;BME280;36826;47.514;19.056;2023-01-28T00:42:05;100189.94;;;8.05;60.79
50859;BME280;36826;47.514;19.056;2023-01-28T00:44:30;100193.00;;;8.35;59.62
50859;BME280;36826;47.514;19.056;2023-01-28T00:46:55;100186.91;;;8.21;59.56
50859;BME280;36826;47.514;19.056;2023-01-28T00:49:21;100194.69;;;8.13;59.88
50859;BME280;36826;47.514;19.056;2023-01-28T00:51:46;100193.22;;;8.09;59.94
50859;BME280;36826;47.514;19.056;2023-01-28T00:54:12;100201.75;;;7.67;60.04
50859;BME280;36826;47.514;19.056;2023-01-28T00:56:38;100201.50;;;8.17;59.84
50859;BME280;36826;47.514;19.056;2023-01-28T00:59:03;100203.91;;;8.20;60.34
50859;BME280;36826;47.514;19.056;2023-01-28T01:01:29;100198.59;;;8.43;59.00
50859;BME280;36826;47.514;19.056;2023-01-28T01:03:54;100201.41;;;7.12;60.67
50859;BME280;36826;47.514;19.056;2023-01-28T01:06:26;100191.88;;;7.92;59.96
50859;BME280;36826;47.514;19.056;2023-01-28T01:08:52;100196.50;;;7.54;60.20
50859;BME280;36826;47.514;19.056;2023-01-28T01:11:18;100194.25;;;7.36;60.62
50859;BME280;36826;47.514;19.056;2023-01-28T01:13:43;100198.69;;;7.96;60.20
50859;BME280;36826;47.514;19.056;2023-01-28T01:16:11;100204.06;;;7.72;60.25
50859;BME280;36826;47.514;19.056;2023-01-28T01:18:37;100204.41;;;8.14;59.95
50859;BME280;36826;47.514;19.056;2023-01-28T01:21:07;100201.13;;;8.22;59.51
50859;BME280;36826;47.514;19.056;2023-01-28T01:23:33;100198.59;;;8.32;58.95
50859;BME280;36826;47.514;19.056;2023-01-28T01:25:58;100196.75;;;8.09;59.47
50859;BME280;36826;47.514;19.056;2023-01-28T01:28:23;100194.56;;;7.56;60.55
50859;BME280;36826;47.514;19.056;2023-01-28T01:30:49;100205.81;;;7.95;59.95
50859;BME280;36826;47.514;19.056;2023-01-28T01:33:15;100205.00;;;7.59;60.52
50859;BME280;36826;47.514;19.056;2023-01-28T01:35:40;100201.25;;;7.62;60.57
50859;BME280;36826;47.514;19.056;2023-01-28T01:38:06;100204.00;;;7.85;60.40
50859;BME280;36826;47.514;19.056;2023-01-28T01:40:31;100195.19;;;8.18;59.41
50859;BME280;36826;47.514;19.056;2023-01-28T01:42:56;100200.44;;;7.73;59.87
50859;BME280;36826;47.514;19.056;2023-01-28T01:45:22;100199.97;;;7.79;60.14
50859;BME280;36826;47.514;19.056;2023-01-28T01:48:02;100202.13;;;7.74;60.70
50859;BME280;36826;47.514;19.056;2023-01-28T01:50:30;100200.03;;;7.30;60.78
50859;BME280;36826;47.514;19.056;2023-01-28T01:52:58;100210.75;;;7.89;60.79
50859;BME280;36826;47.514;19.056;2023-01-28T01:55:25;100204.06;;;7.72;60.79
50859;BME280;36826;47.514;19.056;2023-01-28T01:57:54;100206.69;;;7.96;60.32
50859;BME280;36826;47.514;19.056;2023-01-28T02:00:22;100208.25;;;8.10;60.23
50859;BME280;36826;47.514;19.056;2023-01-28T02:02:48;100211.44;;;8.15;60.34
50859;BME280;36826;47.514;19.056;2023-01-28T02:05:16;100205.59;;;8.21;60.06
50859;BME280;36826;47.514;19.056;2023-01-28T02:07:42;100209.41;;;7.72;60.76
50859;BME280;36826;47.514;19.056;2023-01-28T02:10:09;100206.78;;;7.94;60.97
50859;BME280;36826;47.514;19.056;2023-01-28T02:12:35;100214.19;;;8.02;60.86
50859;BME280;36826;47.514;19.056;2023-01-28T02:15:21;100210.22;;;8.19;60.83
50859;BME280;36826;47.514;19.056;2023-01-28T02:17:48;100206.09;;;8.26;60.77
50859;BME280;36826;47.514;19.056;2023-01-28T02:30:21;100192.53;;;8.29;59.82
50859;BME280;36826;47.514;19.056;2023-01-28T02:32:53;100199.25;;;7.88;60.76
50859;BME280;36826;47.514;19.056;2023-01-28T02:35:21;100194.91;;;7.98;61.12
50859;BME280;36826;47.514;19.056;2023-01-28T02:38:08;100195.88;;;7.97;60.78
50859;BME280;36826;47.514;19.056;2023-01-28T02:40:36;100194.31;;;8.18;60.77
50859;BME280;36826;47.514;19.056;2023-01-28T02:43:33;100195.56;;;8.25;60.98
50859;BME280;36826;47.514;19.056;2023-01-28T02:46:00;100196.25;;;8.16;60.88
50859;BME280;36826;47.514;19.056;2023-01-28T02:48:46;100195.22;;;7.71;62.21
50859;BME280;36826;47.514;19.056;2023-01-28T02:51:22;100194.50;;;7.80;61.70
50859;BME280;36826;47.514;19.056;2023-01-28T02:53:56;100190.09;;;8.26;61.15
50859;BME280;36826;47.514;19.056;2023-01-28T02:59:00;100198.94;;;8.16;61.12
50859;BME280;36826;47.514;19.056;2023-01-28T03:01:50;100198.31;;;8.12;61.56
50859;BME280;36826;47.514;19.056;2023-01-28T03:04:27;100190.44;;;8.44;61.04
50859;BME280;36826;47.514;19.056;2023-01-28T03:06:54;100195.47;;;7.79;62.47
50859;BME280;36826;47.514;19.056;2023-01-28T03:09:20;100195.66;;;8.35;61.02
50859;BME280;36826;47.514;19.056;2023-01-28T03:11:48;100194.47;;;8.27;61.01
50859;BME280;36826;47.514;19.056;2023-01-28T03:14:33;100199.81;;;8.50;60.88
50859;BME280;36826;47.514;19.056;2023-01-28T03:17:20;100198.31;;;8.35;61.21
50859;BME280;36826;47.514;19.056;2023-01-28T03:20:05;100198.66;;;7.85;61.65
50859;BME280;36826;47.514;19.056;2023-01-28T03:22:50;100196.91;;;8.53;61.15
50859;BME280;36826;47.514;19.056;2023-01-28T03:25:37;100198.09;;;8.38;60.80
50859;BME280;36826;47.514;19.056;2023-01-28T03:28:23;100197.28;;;8.49;60.13
50859;BME280;36826;47.514;19.056;2023-01-28T03:31:08;100199.00;;;8.50;59.93
50859;BME280;36826;47.514;19.056;2023-01-28T03:33:53;100199.78;;;8.73;59.54
50859;BME280;36826;47.514;19.056;2023-01-28T03:36:38;100203.06;;;8.20;60.67
50859;BME280;36826;47.514;19.056;2023-01-28T03:39:23;100201.00;;;7.65;60.96
50859;BME280;36826;47.514;19.056;2023-01-28T03:44:27;100206.28;;;7.89;60.87
50859;BME280;36826;47.514;19.056;2023-01-28T03:47:12;100205.97;;;8.28;60.16
50859;BME280;36826;47.514;19.056;2023-01-28T03:49:41;100205.38;;;8.24;60.01
50859;BME280;36826;47.514;19.056;2023-01-28T03:52:07;100210.09;;;8.32;59.89
50859;BME280;36826;47.514;19.056;2023-01-28T03:54:32;100201.59;;;8.16;60.40
50859;BME280;36826;47.514;19.056;2023-01-28T03:56:57;100209.97;;;8.22;59.82
50859;BME280;36826;47.514;19.056;2023-01-28T03:59:24;100205.88;;;8.29;60.31
50859;BME280;36826;47.514;19.056;2023-01-28T04:01:51;100211.31;;;7.70;61.46
50859;BME280;36826;47.514;19.056;2023-01-28T04:04:16;100213.97;;;8.05;61.02
50859;BME280;36826;47.514;19.056;2023-01-28T04:06:51;100206.22;;;8.25;60.49
50859;BME280;36826;47.514;19.056;2023-01-28T04:09:17;100204.56;;;8.58;59.91
50859;BME280;36826;47.514;19.056;2023-01-28T04:11:42;100205.16;;;8.62;59.29
50859;BME280;36826;47.514;19.056;2023-01-28T04:14:09;100205.75;;;8.77;59.39
50859;BME280;36826;47.514;19.056;2023-01-28T04:16:34;100214.84;;;8.63;59.03
50859;BME280;36826;47.514;19.056;2023-01-28T04:19:00;100212.44;;;8.48;59.33
50859;BME280;36826;47.514;19.056;2023-01-28T04:21:25;100209.88;;;8.47;59.18
50859;BME280;36826;47.514;19.056;2023-01-28T04:23:51;100210.47;;;8.27;59.05
50859;BME280;36826;47.514;19.056;2023-01-28T04:26:16;100216.03;;;8.24;59.41
50859;BME280;36826;47.514;19.056;2023-01-28T04:28:41;100217.59;;;8.04;59.26
50859;BME280;36826;47.514;19.056;2023-01-28T04:31:07;100216.63;;;8.05;59.88
50859;BME280;36826;47.514;19.056;2023-01-28T04:33:32;100215.97;;;7.79;60.18
50859;BME280;36826;47.514;19.056;2023-01-28T04:35:57;100223.50;;;7.96;60.06
50859;BME280;36826;47.514;19.056;2023-01-28T04:38:23;100221.66;;;8.44;59.21
50859;BME280;36826;47.514;19.056;2023-01-28T04:40:49;100216.19;;;8.23;59.78
50859;BME280;36826;47.514;19.056;2023-01-28T04:43:17;100222.53;;;7.86;60.42
50859;BME280;36826;47.514;19.056;2023-01-28T04:45:44;100221.97;;;8.05;60.46
50859;BME280;36826;47.514;19.056;2023-01-28T04:48:10;100215.91;;;8.14;60.10
50859;BME280;36826;47.514;19.056;2023-01-28T04:50:35;100222.91;;;7.57;61.03
50859;BME280;36826;47.514;19.056;2023-01-28T04:53:01;100227.91;;;8.20;60.38
50859;BME280;36826;47.514;19.056;2023-01-28T04:55:26;100222.75;;;7.83;61.52
50859;BME280;36826;47.514;19.056;2023-01-28T04:57:51;100230.25;;;7.42;62.18
50859;BME280;36826;47.514;19.056;2023-01-28T05:00:17;100230.50;;;7.75;61.91
50859;BME280;36826;47.514;19.056;2023-01-28T05:02:42;100227.38;;;7.45;62.00
50859;BME280;36826;47.514;19.056;2023-01-28T05:05:08;100242.06;;;7.51;62.12
50859;BME280;36826;47.514;19.056;2023-01-28T05:07:33;100243.28;;;7.58;61.54
50859;BME280;36826;47.514;19.056;2023-01-28T05:09:59;100244.22;;;7.81;62.04
50859;BME280;36826;47.514;19.056;2023-01-28T05:12:24;100241.94;;;7.52;62.38
50859;BME280;36826;47.514;19.056;2023-01-28T05:14:50;100244.72;;;7.87;61.09
50859;BME280;36826;47.514;19.056;2023-01-28T05:17:15;100242.94;;;7.98;61.43
50859;BME280;36826;47.514;19.056;2023-01-28T05:19:40;100247.97;;;8.26;60.37
50859;BME280;36826;47.514;19.056;2023-01-28T05:22:05;100255.28;;;7.99;60.59
50859;BME280;36826;47.514;19.056;2023-01-28T05:24:31;100254.50;;;7.75;61.54
50859;BME280;36826;47.514;19.056;2023-01-28T05:26:56;100255.69;;;8.18;60.71
50859;BME280;36826;47.514;19.056;2023-01-28T05:29:21;100258.53;;;8.39;60.12
50859;BME280;36826;47.514;19.056;2023-01-28T05:31:47;100261.38;;;8.13;60.15
50859;BME280;36826;47.514;19.056;2023-01-28T05:34:12;100259.69;;;8.12;60.44
50859;BME280;36826;47.514;19.056;2023-01-28T05:36:37;100262.84;;;7.46;61.00
50859;BME280;36826;47.514;19.056;2023-01-28T05:39:05;100252.72;;;8.45;59.26
50859;BME280;36826;47.514;19.056;2023-01-28T05:41:31;100259.72;;;8.35;59.24
50859;BME280;36826;47.514;19.056;2023-01-28T05:43:57;100257.19;;;8.44;59.47
50859;BME280;36826;47.514;19.056;2023-01-28T05:46:22;100261.00;;;8.65;58.58
50859;BME280;36826;47.514;19.056;2023-01-28T05:48:49;100263.72;;;8.40;59.05
50859;BME280;36826;47.514;19.056;2023-01-28T05:51:15;100259.16;;;8.54;58.80
50859;BME280;36826;47.514;19.056;2023-01-28T05:53:40;100273.56;;;8.28;59.16
50859;BME280;36826;47.514;19.056;2023-01-28T05:56:05;100269.06;;;8.29;59.69
50859;BME280;36826;47.514;19.056;2023-01-28T05:58:31;100265.22;;;8.67;59.13
50859;BME280;36826;47.514;19.056;2023-01-28T06:00:56;100268.75;;;8.68;58.83
50859;BME280;36826;47.514;19.056;2023-01-28T06:03:22;100280.56;;;8.18;60.34
50859;BME280;36826;47.514;19.056;2023-01-28T06:05:47;100278.56;;;7.97;60.32
50859;BME280;36826;47.514;19.056;2023-01-28T06:08:12;100284.09;;;8.30;60.16
50859;BME280;36826;47.514;19.056;2023-01-28T06:10:38;100284.13;;;7.94;60.98
50859;BME280;36826;47.514;19.056;2023-01-28T06:13:03;100283.50;;;7.91;61.11
50859;BME280;36826;47.514;19.056;2023-01-28T06:15:28;100286.09;;;7.92;61.24
50859;BME280;36826;47.514;19.056;2023-01-28T06:17:53;100291.75;;;8.35;60.22
50859;BME280;36826;47.514;19.056;2023-01-28T06:20:19;100296.31;;;8.57;60.51
50859;BME280;36826;47.514;19.056;2023-01-28T06:22:44;100294.97;;;8.51;60.33
50859;BME280;36826;47.514;19.056;2023-01-28T06:25:10;100297.91;;;8.82;59.79
50859;BME280;36826;47.514;19.056;2023-01-28T06:27:35;100300.13;;;8.41;61.06
50859;BME280;36826;47.514;19.056;2023-01-28T06:30:00;100296.13;;;8.47;61.26
50859;BME280;36826;47.514;19.056;2023-01-28T06:32:26;100298.84;;;8.00;61.97
50859;BME280;36826;47.514;19.056;2023-01-28T06:34:51;100307.25;;;8.18;61.52
50859;BME280;36826;47.514;19.056;2023-01-28T06:37:16;100301.81;;;8.31;60.81
50859;BME280;36826;47.514;19.056;2023-01-28T06:39:42;100310.56;;;7.97;61.13
50859;BME280;36826;47.514;19.056;2023-01-28T06:42:07;100308.59;;;7.88;61.70
50859;BME280;36826;47.514;19.056;2023-01-28T06:44:32;100317.47;;;7.64;62.23
50859;BME280;36826;47.514;19.056;2023-01-28T06:46:58;100324.09;;;7.83;62.76
50859;BME280;36826;47.514;19.056;2023-01-28T06:49:23;100328.81;;;8.04;62.19
50859;BME280;36826;47.514;19.056;2023-01-28T06:51:48;100323.66;;;7.89;62.27
50859;BME280;36826;47.514;19.056;2023-01-28T06:54:14;100329.66;;;8.16;61.80
50859;BME280;36826;47.514;19.056;2023-01-28T06:56:39;100338.09;;;8.34;61.55
50859;BME280;36826;47.514;19.056;2023-01-28T06:59:04;100334.00;;;8.41;61.12
50859;BME280;36826;47.514;19.056;2023-01-28T07:01:30;100337.84;;;8.25;61.17
50859;BME280;36826;47.514;19.056;2023-01-28T07:03:55;100343.94;;;8.39;61.41
50859;BME280;36826;47.514;19.056;2023-01-28T07:06:20;100345.09;;;8.70;61.19
50859;BME280;36826;47.514;19.056;2023-01-28T07:08:46;100345.22;;;8.57;61.56
50859;BME280;36826;47.514;19.056;2023-01-28T07:11:11;100345.75;;;8.38;61.67
50859;BME280;36826;47.514;19.056;2023-01-28T07:13:36;100358.28;;;7.78;63.31
50859;BME280;36826;47.514;19.056;2023-01-28T07:16:02;100356.06;;;8.32;62.37
50859;BME280;36826;47.514;19.056;2023-01-28T07:18:28;100353.09;;;8.48;62.56
50859;BME280;36826;47.514;19.056;2023-01-28T07:20:53;100361.41;;;8.32;62.79
50859;BME280;36826;47.514;19.056;2023-01-28T07:23:19;100375.72;;;8.31;62.86
50859;BME280;36826;47.514;19.056;2023-01-28T07:25:44;100375.69;;;8.19;64.04
50859;BME280;36826;47.514;19.056;2023-01-28T07:28:09;100372.06;;;8.32;62.98
50859;BME280;36826;47.514;19.056;2023-01-28T07:30:36;100372.38;;;8.51;63.35
50859;BME280;36826;47.514;19.056;2023-01-28T07:33:01;100377.06;;;8.83;62.31
50859;BME280;36826;47.514;19.056;2023-01-28T07:35:26;100375.22;;;8.84;62.09
50859;BME280;36826;47.514;19.056;2023-01-28T07:37:52;100372.19;;;8.66;62.75
50859;BME280;36826;47.514;19.056;2023-01-28T07:40:18;100373.16;;;8.87;61.96
50859;BME280;36826;47.514;19.056;2023-01-28T07:42:44;100381.41;;;8.84;62.11
50859;BME280;36826;47.514;19.056;2023-01-28T07:45:09;100377.81;;;9.08;62.03
50859;BME280;36826;47.514;19.056;2023-01-28T07:47:35;100377.81;;;9.19;61.87
50859;BME280;36826;47.514;19.056;2023-01-28T07:50:00;100368.72;;;9.66;60.83
50859;BME280;36826;47.514;19.056;2023-01-28T07:52:26;100380.47;;;9.31;61.88
50859;BME280;36826;47.514;19.056;2023-01-28T07:54:51;100382.34;;;9.63;61.21
50859;BME280;36826;47.514;19.056;2023-01-28T07:57:16;100374.13;;;9.43;62.46
50859;BME280;36826;47.514;19.056;2023-01-28T07:59:50;100382.84;;;9.57;61.41
50859;BME280;36826;47.514;19.056;2023-01-28T08:02:15;100383.97;;;9.20;62.37
50859;BME280;36826;47.514;19.056;2023-01-28T08:04:40;100389.19;;;9.10;62.88
50859;BME280;36826;47.514;19.056;2023-01-28T08:07:06;100392.38;;;9.15;62.15
50859;BME280;36826;47.514;19.056;2023-01-28T08:09:31;100393.09;;;9.17;62.97
50859;BME280;36826;47.514;19.056;2023-01-28T08:11:58;100400.97;;;8.85;63.51
50859;BME280;36826;47.514;19.056;2023-01-28T08:14:23;100391.88;;;8.99;62.65
50859;BME280;36826;47.514;19.056;2023-01-28T08:16:49;100400.44;;;8.68;63.81
50859;BME280;36826;47.514;19.056;2023-01-28T08:19:14;100395.41;;;8.99;63.29
50859;BME280;36826;47.514;19.056;2023-01-28T08:21:41;100394.88;;;8.71;64.23
50859;BME280;36826;47.514;19.056;2023-01-28T08:24:07;100396.25;;;9.11;62.43
50859;BME280;36826;47.514;19.056;2023-01-28T08:26:32;100396.72;;;9.39;63.08
50859;BME280;36826;47.514;19.056;2023-01-28T08:28:58;100401.34;;;9.48;62.98
50859;BME280;36826;47.514;19.056;2023-01-28T08:31:23;100408.13;;;9.52;63.06
50859;BME280;36826;47.514;19.056;2023-01-28T08:33:48;100403.81;;;9.84;62.79
50859;BME280;36826;47.514;19.056;2023-01-28T08:36:14;100405.91;;;10.13;61.40
50859;BME280;36826;47.514;19.056;2023-01-28T08:38:39;100400.38;;;10.05;61.20
50859;BME280;36826;47.514;19.056;2023-01-28T08:41:05;100412.75;;;8.82;63.49
50859;BME280;36826;47.514;19.056;2023-01-28T08:43:30;100411.34;;;9.35;62.56
50859;BME280;36826;47.514;19.056;2023-01-28T08:45:55;100418.25;;;9.38;62.86
50859;BME280;36826;47.514;19.056;2023-01-28T08:48:20;100423.69;;;9.70;63.02
50859;BME280;36826;47.514;19.056;2023-01-28T08:50:46;100421.69;;;9.95;61.38
50859;BME280;36826;47.514;19.056;2023-01-28T08:53:15;100420.19;;;9.35;62.43
50859;BME280;36826;47.514;19.056;2023-01-28T08:55:41;100428.69;;;9.18;63.68
50859;BME280;36826;47.514;19.056;2023-01-28T08:58:09;100422.47;;;9.51;63.04
50859;BME280;36826;47.514;19.056;2023-01-28T09:00:35;100431.94;;;8.87;64.89
50859;BME280;36826;47.514;19.056;2023-01-28T09:03:00;100429.03;;;9.70;62.67
50859;BME280;36826;47.514;19.056;2023-01-28T09:05:25;100429.94;;;9.92;62.58
50859;BME280;36826;47.514;19.056;2023-01-28T09:07:51;100430.84;;;10.25;61.59
50859;BME280;36826;47.514;19.056;2023-01-28T09:10:16;100427.69;;;10.20;62.64
50859;BME280;36826;47.514;19.056;2023-01-28T09:12:44;100434.41;;;10.47;61.66
50859;BME280;36826;47.514;19.056;2023-01-28T09:15:10;100436.00;;;10.70;61.08
50859;BME280;36826;47.514;19.056;2023-01-28T09:17:35;100437.56;;;10.08;61.75
50859;BME280;36826;47.514;19.056;2023-01-28T09:20:01;100445.78;;;10.60;61.31
50859;BME280;36826;47.514;19.056;2023-01-28T09:22:26;100438.25;;;10.96;60.90
50859;BME280;36826;47.514;19.056;2023-01-28T09:24:51;100443.69;;;11.06;59.60
50859;BME280;36826;47.514;19.056;2023-01-28T09:27:17;100446.84;;;11.21;59.30
50859;BME280;36826;47.514;19.056;2023-01-28T09:29:42;100446.06;;;10.13;61.54
50859;BME280;36826;47.514;19.056;2023-01-28T09:32:07;100450.66;;;9.78;62.75
50859;BME280;36826;47.514;19.056;2023-01-28T09:34:33;100443.44;;;10.34;62.52
50859;BME280;36826;47.514;19.056;2023-01-28T09:36:58;100448.09;;;9.88;62.24
50859;BME280;36826;47.514;19.056;2023-01-28T09:39:23;100447.69;;;10.69;61.33
50859;BME280;36826;47.514;19.056;2023-01-28T09:47:02;100442.22;;;11.64;60.62
50859;BME280;36826;47.514;19.056;2023-01-28T09:49:33;100442.94;;;12.07;58.17
50859;BME280;36826;47.514;19.056;2023-01-28T09:51:59;100439.72;;;11.72;59.40
50859;BME280;36826;47.514;19.056;2023-01-28T09:54:26;100438.31;;;11.78;58.86
50859;BME280;36826;47.514;19.056;2023-01-28T09:56:57;100442.63;;;12.10;58.72
50859;BME280;36826;47.514;19.056;2023-01-28T09:59:29;100445.69;;;11.45;57.46
50859;BME280;36826;47.514;19.056;2023-01-28T10:01:58;100438.13;;;12.20;57.81
50859;BME280;36826;47.514;19.056;2023-01-28T10:04:47;100434.44;;;12.21;56.03
50859;BME280;36826;47.514;19.056;2023-01-28T10:07:26;100431.03;;;12.78;56.45
50859;BME280;36826;47.514;19.056;2023-01-28T10:20:19;100430.16;;;10.86;58.56
50859;BME280;36826;47.514;19.056;2023-01-28T10:22:51;100431.56;;;12.92;55.47
50859;BME280;36826;47.514;19.056;2023-01-28T10:25:22;100427.16;;;13.48;53.00
50859;BME280;36826;47.514;19.056;2023-01-28T10:27:48;100429.41;;;13.05;54.18
50859;BME280;36826;47.514;19.056;2023-01-28T10:32:41;100435.84;;;13.32;53.78
50859;BME280;36826;47.514;19.056;2023-01-28T10:35:09;100433.88;;;12.47;52.98
50859;BME280;36826;47.514;19.056;2023-01-28T10:37:34;100429.06;;;13.28;53.62
50859;BME280;36826;47.514;19.056;2023-01-28T10:40:01;100428.91;;;13.29;52.52
50859;BME280;36826;47.514;19.056;2023-01-28T10:44:55;100426.03;;;13.03;52.45
50859;BME280;36826;47.514;19.056;2023-01-28T10:47:26;100428.41;;;13.54;51.24
50859;BME280;36826;47.514;19.056;2023-01-28T10:49:53;100435.13;;;13.40;51.65
50859;BME280;36826;47.514;19.056;2023-01-28T10:52:20;100425.81;;;12.08;53.36
50859;BME280;36826;47.514;19.056;2023-01-28T10:54:45;100427.97;;;13.20;51.56
50859;BME280;36826;47.514;19.056;2023-01-28T10:57:15;100422.50;;;13.02;52.29
50859;BME280;36826;47.514;19.056;2023-01-28T10:59:42;100429.91;;;12.02;54.29
50859;BME280;36826;47.514;19.056;2023-01-28T11:05:01;100439.59;;;11.33;55.23
50859;BME280;36826;47.514;19.056;2023-01-28T11:07:26;100425.00;;;12.37;53.18
50859;BME280;36826;47.514;19.056;2023-01-28T11:09:52;100431.28;;;11.46;55.18
50859;BME280;36826;47.514;19.056;2023-01-28T11:14:49;100418.34;;;12.21;53.79
50859;BME280;36826;47.514;19.056;2023-01-28T11:17:16;100429.88;;;11.92;53.93
50859;BME280;36826;47.514;19.056;2023-01-28T11:19:42;100417.50;;;12.31;53.60
50859;BME280;36826;47.514;19.056;2023-01-28T11:24:51;100413.19;;;12.87;52.36
50859;BME280;36826;47.514;19.056;2023-01-28T11:27:17;100420.34;;;12.19;53.00
50859;BME280;36826;47.514;19.056;2023-01-28T11:29:46;100410.50;;;12.87;52.91
50859;BME280;36826;47.514;19.056;2023-01-28T11:32:29;100415.94;;;12.18;54.11
50859;BME280;36826;47.514;19.056;2023-01-28T11:34:56;100405.34;;;12.36;51.21
50859;BME280;36826;47.514;19.056;2023-01-28T11:37:24;100410.28;;;11.51;52.54
50859;BME280;36826;47.514;19.056;2023-01-28T11:42:33;100415.69;;;9.36;56.39
50859;BME280;36826;47.514;19.056;2023-01-28T11:44:59;100411.47;;;10.96;54.50
50859;BME280;36826;47.514;19.056;2023-01-28T11:47:31;100419.41;;;11.08;52.26
50859;BME280;36826;47.514;19.056;2023-01-28T12:06:17;100398.56;;;12.03;50.21
50859;BME280;36826;47.514;19.056;2023-01-28T12:09:02;100399.00;;;11.57;51.16
50859;BME280;36826;47.514;19.056;2023-01-28T12:11:47;100400.25;;;12.04;49.75
50859;BME280;36826;47.514;19.056;2023-01-28T12:22:47;100387.53;;;12.25;49.17
50859;BME280;36826;47.514;19.056;2023-01-28T12:25:35;100390.19;;;11.35;49.51
50859;BME280;36826;47.514;19.056;2023-01-28T12:43:38;100391.94;;;12.07;47.84
50859;BME280;36826;47.514;19.056;2023-01-28T12:51:40;100398.78;;;11.29;49.82
50859;BME280;36826;47.514;19.056;2023-01-28T12:56:37;100390.81;;;11.69;48.60
50859;BME280;36826;47.514;19.056;2023-01-28T13:09:35;100408.63;;;9.58;51.84
50859;BME280;36826;47.514;19.056;2023-01-28T13:12:02;100412.97;;;8.68;54.09
50859;BME280;36826;47.514;19.056;2023-01-28T13:14:29;100415.94;;;9.21;53.78
50859;BME280;36826;47.514;19.056;2023-01-28T13:16:55;100418.72;;;9.65;53.09
50859;BME280;36826;47.514;19.056;2023-01-28T13:19:22;100426.78;;;10.63;50.73
50859;BME280;36826;47.514;19.056;2023-01-28T13:21:48;100422.31;;;9.87;51.62
50859;BME280;36826;47.514;19.056;2023-01-28T13:26:52;100418.16;;;9.83;52.11
50859;BME280;36826;47.514;19.056;2023-01-28T13:31:50;100424.59;;;11.30;50.52
50859;BME280;36826;47.514;19.056;2023-01-28T13:34:38;100425.41;;;11.62;49.27
50859;BME280;36826;47.514;19.056;2023-01-28T13:39:50;100427.94;;;10.70;50.40
50859;BME280;36826;47.514;19.056;2023-01-28T13:42:20;100436.13;;;10.36;50.41
50859;BME280;36826;47.514;19.056;2023-01-28T13:44:46;100440.25;;;9.18;52.36
50859;BME280;36826;47.514;19.056;2023-01-28T13:47:14;100438.91;;;10.35;51.49
50859;BME280;36826;47.514;19.056;2023-01-28T13:49:44;100436.59;;;9.08;53.07
50859;BME280;36826;47.514;19.056;2023-01-28T13:54:56;100441.41;;;11.01;50.48
50859;BME280;36826;47.514;19.056;2023-01-28T14:00:04;100448.81;;;11.50;49.14
50859;BME280;36826;47.514;19.056;2023-01-28T14:05:16;100443.66;;;11.27;49.80
50859;BME280;36826;47.514;19.056;2023-01-28T14:12:46;100462.06;;;10.68;52.31
50859;BME280;36826;47.514;19.056;2023-01-28T14:15:24;100455.63;;;11.23;52.24
50859;BME280;36826;47.514;19.056;2023-01-28T14:17:56;100457.81;;;10.87;53.25
50859;BME280;36826;47.514;19.056;2023-01-28T14:22:48;100466.41;;;11.33;52.20
50859;BME280;36826;47.514;19.056;2023-01-28T14:25:15;100461.75;;;10.83;52.76
50859;BME280;36826;47.514;19.056;2023-01-28T14:27:46;100471.06;;;11.72;51.77
50859;BME280;36826;47.514;19.056;2023-01-28T14:32:43;100470.19;;;10.99;53.64
50859;BME280;36826;47.514;19.056;2023-01-28T14:35:14;100474.00;;;11.07;53.77
50859;BME280;36826;47.514;19.056;2023-01-28T14:37:41;100476.59;;;10.87;53.56
50859;BME280;36826;47.514;19.056;2023-01-28T14:40:06;100473.94;;;11.18;54.18
50859;BME280;36826;47.514;19.056;2023-01-28T14:42:36;100474.06;;;11.16;53.87
50859;BME280;36826;47.514;19.056;2023-01-28T14:45:24;100479.03;;;10.79;54.18
50859;BME280;36826;47.514;19.056;2023-01-28T14:50:28;100482.19;;;11.26;54.60
50859;BME280;36826;47.514;19.056;2023-01-28T14:53:13;100482.44;;;11.23;53.84
50859;BME280;36826;47.514;19.056;2023-01-28T14:58:15;100492.00;;;11.16;54.36
50859;BME280;36826;47.514;19.056;2023-01-28T15:00:51;100483.50;;;11.11;54.04
50859;BME280;36826;47.514;19.056;2023-01-28T15:03:17;100483.88;;;11.27;53.99
50859;BME280;36826;47.514;19.056;2023-01-28T15:05:42;100485.34;;;10.68;54.53
50859;BME280;36826;47.514;19.056;2023-01-28T15:08:08;100490.16;;;11.16;54.66